sensor_id;sensor_type;location;lat;lon;timestamp;pressure;altitude;pressure_sealevel;temperature;humidity
39301;BME280;25019;42.626;23.380;2023-09-19T00:02:17;94830.22;;;15.98;98.48
39301;BME280;25019;42.626;23.380;2023-09-19T00:04:43;94837.47;;;15.98;98.55
39301;BME280;25019;42.626;23.380;2023-09-19T00:07:09;94812.03;;;15.80;99.31
39301;BME280;25019;42.626;23.380;2023-09-19T00:09:34;94758.31;;;15.40;99.41
39301;BME280;25019;42.626;23.380;2023-09-19T00:12:06;94779.97;;;15.43;99.70
39301;BME280;25019;42.626;23.380;2023-09-19T00:14:34;94835.34;;;15.74;100.00
39301;BME280;25019;42.626;23.380;2023-09-19T00:17:02;94835.31;;;15.79;100.00
39301;BME280;25019;42.626;23.380;2023-09-19T00:19:36;94834.78;;;15.77;100.00
39301;BME280;25019;42.626;23.380;2023-09-19T00:22:03;94835.84;;;15.76;100.00
39301;BME280;25019;42.626;23.380;2023-09-19T00:24:29;94801.38;;;15.54;100.00
39301;BME280;25019;42.626;23.380;2023-09-19T00:26:56;94723.28;;;15.05;100.00
39301;BME280;25019;42.626;23.380;2023-09-19T00:29:25;94814.47;;;15.66;100.00
39301;BME280;25019;42.626;23.380;2023-09-19T00:31:55;94826.78;;;15.72;100.00
39301;BME280;25019;42.626;23.380;2023-09-19T00:34:21;94821.69;;;15.65;100.00
39301;BME280;25019;42.626;23.380;2023-09-19T00:36:47;94824.38;;;15.65;100.00
39301;BME280;25019;42.626;23.380;2023-09-19T00:39:13;94815.00;;;15.63;100.00
39301;BME280;25019;42.626;23.380;2023-09-19T00:41:38;94805.13;;;15.53;100.00
39301;BME280;25019;42.626;23.380;2023-09-19T00:44:04;94816.63;;;15.58;100.00
39301;BME280;25019;42.626;23.380;2023-09-19T00:46:31;94745.19;;;15.12;100.00
39301;BME280;25019;42.626;23.380;2023-09-19T00:48:58;94809.66;;;15.52;100.00
39301;BME280;25019;42.626;23.380;2023-09-19T00:51:25;94799.22;;;15.51;100.00
39301;BME280;25019;42.626;23.380;2023-09-19T00:53:52;94800.56;;;15.48;100.00
39301;BME280;25019;42.626;23.380;2023-09-19T00:56:19;94801.13;;;15.45;100.00
39301;BME280;25019;42.626;23.380;2023-09-19T00:58:46;94791.19;;;15.35;100.00
39301;BME280;25019;42.626;23.380;2023-09-19T01:01:15;94800.56;;;15.27;100.00
39301;BME280;25019;42.626;23.380;2023-09-19T01:03:41;94786.94;;;15.19;100.00
39301;BME280;25019;42.626;23.380;2023-09-19T01:06:07;94746.00;;;14.92;100.00
39301;BME280;25019;42.626;23.380;2023-09-19T01:08:38;94798.16;;;15.21;100.00
39301;BME280;25019;42.626;23.380;2023-09-19T01:11:20;94801.91;;;15.25;100.00
39301;BME280;25019;42.626;23.380;2023-09-19T01:17:15;94807.81;;;15.22;100.00
39301;BME280;25019;42.626;23.380;2023-09-19T01:20:07;94810.47;;;15.22;100.00
39301;BME280;25019;42.626;23.380;2023-09-19T01:23:11;94800.84;;;15.21;100.00
39301;BME280;25019;42.626;23.380;2023-09-19T01:26:18;94805.94;;;15.17;100.00
39301;BME280;25019;42.626;23.380;2023-09-19T01:28:54;94807.25;;;15.20;100.00
39301;BME280;25019;42.626;23.380;2023-09-19T01:31:30;94814.75;;;15.12;100.00
39301;BME280;25019;42.626;23.380;2023-09-19T01:34:00;94811.00;;;15.13;100.00
39301;BME280;25019;42.626;23.380;2023-09-19T01:36:27;94746.00;;;14.77;100.00
39301;BME280;25019;42.626;23.380;2023-09-19T01:38:53;94747.34;;;14.74;100.00
39301;BME280;25019;42.626;23.380;2023-09-19T01:41:26;94804.56;;;15.09;100.00
39301;BME280;25019;42.626;23.380;2023-09-19T01:43:56;94796.81;;;15.03;100.00
39301;BME280;25019;42.626;23.380;2023-09-19T01:46:30;94779.97;;;14.92;100.00
39301;BME280;25019;42.626;23.380;2023-09-19T01:52:12;94799.25;;;15.04;100.00
39301;BME280;25019;42.626;23.380;2023-09-19T01:54:52;94800.56;;;15.02;100.00
39301;BME280;25019;42.626;23.380;2023-09-19T01:57:27;94799.25;;;14.99;100.00
39301;BME280;25019;42.626;23.380;2023-09-19T02:00:06;94797.63;;;14.93;100.00
39301;BME280;25019;42.626;23.380;2023-09-19T02:02:40;94811.78;;;14.93;100.00
39301;BME280;25019;42.626;23.380;2023-09-19T02:05:07;94798.13;;;14.85;100.00
39301;BME280;25019;42.626;23.380;2023-09-19T02:07:33;94779.63;;;14.62;100.00
39301;BME280;25019;42.626;23.380;2023-09-19T02:10:01;94801.06;;;14.78;100.00
39301;BME280;25019;42.626;23.380;2023-09-19T02:12:28;94824.34;;;14.88;100.00
39301;BME280;25019;42.626;23.380;2023-09-19T02:14:56;94808.56;;;14.81;100.00
39301;BME280;25019;42.626;23.380;2023-09-19T02:17:22;94803.19;;;14.76;100.00
39301;BME280;25019;42.626;23.380;2023-09-19T02:19:54;94788.22;;;14.70;100.00
39301;BME280;25019;42.626;23.380;2023-09-19T02:22:21;94765.44;;;14.46;100.00
39301;BME280;25019;42.626;23.380;2023-09-19T02:24:48;94812.84;;;14.77;100.00
39301;BME280;25019;42.626;23.380;2023-09-19T02:27:14;94810.69;;;14.74;100.00
39301;BME280;25019;42.626;23.380;2023-09-19T02:29:41;94816.56;;;14.71;100.00
39301;BME280;25019;42.626;23.380;2023-09-19T02:32:08;94758.47;;;14.40;100.00
39301;BME280;25019;42.626;23.380;2023-09-19T02:34:37;94743.75;;;14.32;100.00
39301;BME280;25019;42.626;23.380;2023-09-19T02:37:05;94691.00;;;13.97;100.00
39301;BME280;25019;42.626;23.380;2023-09-19T02:39:33;94801.28;;;14.66;100.00
39301;BME280;25019;42.626;23.380;2023-09-19T02:41:59;94773.72;;;14.50;100.00
39301;BME280;25019;42.626;23.380;2023-09-19T02:44:25;94730.09;;;14.23;100.00
39301;BME280;25019;42.626;23.380;2023-09-19T02:46:50;94677.38;;;13.88;100.00
39301;BME280;25019;42.626;23.380;2023-09-19T02:49:16;94765.44;;;14.46;100.00
39301;BME280;25019;42.626;23.380;2023-09-19T02:51:44;94777.72;;;14.52;100.00
39301;BME280;25019;42.626;23.380;2023-09-19T02:54:09;94758.47;;;14.45;100.00
39301;BME280;25019;42.626;23.380;2023-09-19T02:56:36;94773.72;;;14.50;100.00
39301;BME280;25019;42.626;23.380;2023-09-19T02:59:02;94775.31;;;14.46;100.00
39301;BME280;25019;42.626;23.380;2023-09-19T03:01:28;94769.97;;;14.46;100.00
39301;BME280;25019;42.626;23.380;2023-09-19T03:03:54;94760.31;;;14.39;100.00
39301;BME280;25019;42.626;23.380;2023-09-19T03:06:20;94771.28;;;14.38;100.00
39301;BME280;25019;42.626;23.380;2023-09-19T03:08:47;94761.63;;;14.32;100.00
39301;BME280;25019;42.626;23.380;2023-09-19T03:11:15;94761.91;;;14.30;100.00
39301;BME280;25019;42.626;23.380;2023-09-19T03:13:45;94761.91;;;14.30;100.00
39301;BME280;25019;42.626;23.380;2023-09-19T03:16:11;94764.28;;;14.27;100.00
39301;BME280;25019;42.626;23.380;2023-09-19T03:18:40;94760.53;;;14.22;100.00
39301;BME280;25019;42.626;23.380;2023-09-19T03:21:06;94760.00;;;14.20;100.00
39301;BME280;25019;42.626;23.380;2023-09-19T03:23:31;94750.06;;;14.11;100.00
39301;BME280;25019;42.626;23.380;2023-09-19T03:25:57;94772.28;;;14.16;100.00
39301;BME280;25019;42.626;23.380;2023-09-19T03:28:24;94713.91;;;13.77;100.00
39301;BME280;25019;42.626;23.380;2023-09-19T03:30:58;94756.75;;;14.08;100.00
39301;BME280;25019;42.626;23.380;2023-09-19T03:33:25;94747.66;;;14.04;100.00
39301;BME280;25019;42.626;23.380;2023-09-19T03:35:54;94763.44;;;14.11;100.00
39301;BME280;25019;42.626;23.380;2023-09-19T03:38:20;94689.56;;;13.63;100.00
39301;BME280;25019;42.626;23.380;2023-09-19T03:40:47;94755.66;;;14.04;100.00
39301;BME280;25019;42.626;23.380;2023-09-19T03:43:14;94761.81;;;14.09;100.00
39301;BME280;25019;42.626;23.380;2023-09-19T03:45:40;94683.66;;;13.56;100.00
39301;BME280;25019;42.626;23.380;2023-09-19T03:48:10;94744.69;;;13.95;100.00
39301;BME280;25019;42.626;23.380;2023-09-19T03:50:36;94758.34;;;14.04;100.00
39301;BME280;25019;42.626;23.380;2023-09-19T03:53:02;94750.84;;;14.01;100.00
39301;BME280;25019;42.626;23.380;2023-09-19T03:55:28;94712.28;;;13.71;100.00
39301;BME280;25019;42.626;23.380;2023-09-19T03:57:56;94762.34;;;14.01;100.00
39301;BME280;25019;42.626;23.380;2023-09-19T04:00:22;94773.56;;;14.08;100.00
39301;BME280;25019;42.626;23.380;2023-09-19T04:02:51;94777.84;;;14.09;100.00
39301;BME280;25019;42.626;23.380;2023-09-19T04:05:17;94777.84;;;14.09;100.00
39301;BME280;25019;42.626;23.380;2023-09-19T04:07:44;94773.56;;;14.03;100.00
39301;BME280;25019;42.626;23.380;2023-09-19T04:10:10;94786.41;;;14.06;100.00
39301;BME280;25019;42.626;23.380;2023-09-19T04:12:40;94722.59;;;13.57;100.00
39301;BME280;25019;42.626;23.380;2023-09-19T04:15:06;94744.53;;;13.64;100.00
39301;BME280;25019;42.626;23.380;2023-09-19T04:17:32;94795.41;;;13.95;100.00
39301;BME280;25019;42.626;23.380;2023-09-19T04:19:59;94726.84;;;13.53;100.00
39301;BME280;25019;42.626;23.380;2023-09-19T04:22:25;94797.03;;;13.96;100.00
39301;BME280;25019;42.626;23.380;2023-09-19T04:24:51;94805.31;;;14.00;100.00
39301;BME280;25019;42.626;23.380;2023-09-19T04:27:16;94747.47;;;13.62;100.00
39301;BME280;25019;42.626;23.380;2023-09-19T04:29:42;94804.03;;;14.07;100.00
39301;BME280;25019;42.626;23.380;2023-09-19T04:32:08;94764.72;;;13.92;100.00
39301;BME280;25019;42.626;23.380;2023-09-19T04:34:35;94796.03;;;14.18;100.00
39301;BME280;25019;42.626;23.380;2023-09-19T04:37:01;94795.59;;;14.31;100.00
39301;BME280;25019;42.626;23.380;2023-09-19T04:39:27;94791.94;;;14.63;100.00
39301;BME280;25019;42.626;23.380;2023-09-19T04:41:53;94784.25;;;14.98;100.00
39301;BME280;25019;42.626;23.380;2023-09-19T04:44:20;94767.94;;;15.25;100.00
39301;BME280;25019;42.626;23.380;2023-09-19T04:46:46;94772.72;;;15.54;100.00
39301;BME280;25019;42.626;23.380;2023-09-19T04:49:12;94725.13;;;15.20;100.00
39301;BME280;25019;42.626;23.380;2023-09-19T04:51:38;94785.81;;;15.71;100.00
39301;BME280;25019;42.626;23.380;2023-09-19T04:54:05;94792.22;;;15.76;100.00
39301;BME280;25019;42.626;23.380;2023-09-19T04:56:31;94787.94;;;15.90;100.00
39301;BME280;25019;42.626;23.380;2023-09-19T04:58:58;94787.59;;;16.17;100.00
39301;BME280;25019;42.626;23.380;2023-09-19T05:01:24;94737.03;;;15.95;100.00
39301;BME280;25019;42.626;23.380;2023-09-19T05:03:50;94781.88;;;16.35;100.00
39301;BME280;25019;42.626;23.380;2023-09-19T05:06:21;94774.91;;;16.39;100.00
39301;BME280;25019;42.626;23.380;2023-09-19T05:08:50;94728.66;;;16.12;100.00
39301;BME280;25019;42.626;23.380;2023-09-19T05:11:21;94770.13;;;16.25;100.00
39301;BME280;25019;42.626;23.380;2023-09-19T05:13:48;94762.84;;;16.31;100.00
39301;BME280;25019;42.626;23.380;2023-09-19T05:16:16;94744.38;;;16.35;100.00
39301;BME280;25019;42.626;23.380;2023-09-19T05:18:41;94761.69;;;16.53;100.00
39301;BME280;25019;42.626;23.380;2023-09-19T05:21:07;94765.38;;;16.62;100.00
39301;BME280;25019;42.626;23.380;2023-09-19T05:23:33;94750.84;;;16.73;100.00
39301;BME280;25019;42.626;23.380;2023-09-19T05:25:59;94757.69;;;16.90;99.85
39301;BME280;25019;42.626;23.380;2023-09-19T05:28:25;94761.91;;;17.06;98.36
39301;BME280;25019;42.626;23.380;2023-09-19T05:30:52;94755.44;;;17.13;98.46
39301;BME280;25019;42.626;23.380;2023-09-19T05:33:19;94744.84;;;17.27;97.46
39301;BME280;25019;42.626;23.380;2023-09-19T05:35:45;94728.75;;;17.27;95.76
39301;BME280;25019;42.626;23.380;2023-09-19T05:38:12;94755.38;;;17.47;94.92
39301;BME280;25019;42.626;23.380;2023-09-19T05:40:39;94753.19;;;17.55;94.58
39301;BME280;25019;42.626;23.380;2023-09-19T05:43:08;94742.16;;;17.56;94.56
39301;BME280;25019;42.626;23.380;2023-09-19T05:45:34;94684.41;;;17.29;93.02
39301;BME280;25019;42.626;23.380;2023-09-19T05:48:13;94746.03;;;17.69;92.57
39301;BME280;25019;42.626;23.380;2023-09-19T05:50:40;94757.22;;;17.81;92.74
39301;BME280;25019;42.626;23.380;2023-09-19T05:53:05;94695.97;;;17.54;92.16
39301;BME280;25019;42.626;23.380;2023-09-19T05:55:32;94745.50;;;17.96;91.10
39301;BME280;25019;42.626;23.380;2023-09-19T05:57:58;94724.31;;;17.90;89.87
39301;BME280;25019;42.626;23.380;2023-09-19T06:00:25;94743.22;;;18.09;90.26
39301;BME280;25019;42.626;23.380;2023-09-19T06:02:56;94744.47;;;18.17;89.01
39301;BME280;25019;42.626;23.380;2023-09-19T06:05:24;94726.50;;;17.88;88.17
39301;BME280;25019;42.626;23.380;2023-09-19T06:07:52;94707.66;;;17.69;88.55
39301;BME280;25019;42.626;23.380;2023-09-19T06:10:18;94658.00;;;17.42;89.20
39301;BME280;25019;42.626;23.380;2023-09-19T06:12:46;94738.63;;;17.85;88.72
39301;BME280;25019;42.626;23.380;2023-09-19T06:15:13;94712.94;;;17.74;89.07
39301;BME280;25019;42.626;23.380;2023-09-19T06:17:54;94685.75;;;17.56;88.40
39301;BME280;25019;42.626;23.380;2023-09-19T06:20:21;94613.31;;;17.02;88.84
39301;BME280;25019;42.626;23.380;2023-09-19T06:22:48;94731.75;;;17.98;88.69
39301;BME280;25019;42.626;23.380;2023-09-19T06:25:15;94687.94;;;17.78;88.23
39301;BME280;25019;42.626;23.380;2023-09-19T06:27:53;94712.06;;;18.08;86.57
39301;BME280;25019;42.626;23.380;2023-09-19T06:30:20;94615.47;;;17.49;86.34
39301;BME280;25019;42.626;23.380;2023-09-19T06:32:46;94631.06;;;17.71;88.66
39301;BME280;25019;42.626;23.380;2023-09-19T06:35:14;94714.47;;;18.29;86.52
39301;BME280;25019;42.626;23.380;2023-09-19T06:37:41;94577.31;;;17.52;85.32
39301;BME280;25019;42.626;23.380;2023-09-19T06:40:14;94717.03;;;18.58;84.80
39301;BME280;25019;42.626;23.380;2023-09-19T06:42:44;94651.53;;;18.30;84.83
39301;BME280;25019;42.626;23.380;2023-09-19T06:45:13;94671.09;;;18.16;84.76
39301;BME280;25019;42.626;23.380;2023-09-19T06:47:44;94718.06;;;18.43;84.94
39301;BME280;25019;42.626;23.380;2023-09-19T06:50:11;94695.28;;;18.54;85.28
39301;BME280;25019;42.626;23.380;2023-09-19T06:52:42;94602.97;;;18.07;84.37
39301;BME280;25019;42.626;23.380;2023-09-19T06:55:08;94680.78;;;18.36;83.38
39301;BME280;25019;42.626;23.380;2023-09-19T06:57:37;94680.78;;;18.36;84.27
39301;BME280;25019;42.626;23.380;2023-09-19T07:00:03;94716.00;;;18.73;83.59
39301;BME280;25019;42.626;23.380;2023-09-19T07:02:35;94716.06;;;18.87;82.83
39301;BME280;25019;42.626;23.380;2023-09-19T07:05:00;94704.59;;;18.81;81.59
39301;BME280;25019;42.626;23.380;2023-09-19T07:07:27;94747.91;;;19.18;81.14
39301;BME280;25019;42.626;23.380;2023-09-19T07:09:54;94738.63;;;19.24;80.96
39301;BME280;25019;42.626;23.380;2023-09-19T07:12:20;94609.84;;;18.32;80.31
39301;BME280;25019;42.626;23.380;2023-09-19T07:14:45;94740.69;;;19.13;80.54
39301;BME280;25019;42.626;23.380;2023-09-19T07:17:11;94754.41;;;19.17;80.58
39301;BME280;25019;42.626;23.380;2023-09-19T07:19:49;94627.06;;;18.50;79.20
39301;BME280;25019;42.626;23.380;2023-09-19T07:22:16;94594.16;;;18.39;78.16
39301;BME280;25019;42.626;23.380;2023-09-19T07:24:41;94651.28;;;18.83;77.83
39301;BME280;25019;42.626;23.380;2023-09-19T07:27:08;94683.50;;;19.22;77.73
39301;BME280;25019;42.626;23.380;2023-09-19T07:29:34;94750.94;;;19.77;77.15
39301;BME280;25019;42.626;23.380;2023-09-19T07:32:00;94751.47;;;19.94;77.19
39301;BME280;25019;42.626;23.380;2023-09-19T07:34:25;94716.53;;;19.41;76.75
39301;BME280;25019;42.626;23.380;2023-09-19T07:36:51;94661.88;;;19.27;75.93
39301;BME280;25019;42.626;23.380;2023-09-19T07:39:26;94752.06;;;19.90;75.81
39301;BME280;25019;42.626;23.380;2023-09-19T07:41:52;94605.75;;;18.87;76.32
39301;BME280;25019;42.626;23.380;2023-09-19T07:44:19;94723.66;;;19.51;76.76
39301;BME280;25019;42.626;23.380;2023-09-19T07:46:45;94751.63;;;19.83;76.35
39301;BME280;25019;42.626;23.380;2023-09-19T07:49:11;94672.09;;;19.44;76.47
39301;BME280;25019;42.626;23.380;2023-09-19T07:51:36;94758.78;;;20.07;75.27
39301;BME280;25019;42.626;23.380;2023-09-19T07:54:02;94707.31;;;19.75;74.39
39301;BME280;25019;42.626;23.380;2023-09-19T07:56:29;94751.88;;;20.15;74.97
39301;BME280;25019;42.626;23.380;2023-09-19T07:58:54;94753.16;;;20.17;75.06
39301;BME280;25019;42.626;23.380;2023-09-19T08:01:20;94709.91;;;19.81;74.77
39301;BME280;25019;42.626;23.380;2023-09-19T08:03:49;94752.97;;;20.28;74.81
39301;BME280;25019;42.626;23.380;2023-09-19T08:06:14;94755.44;;;20.24;74.11
39301;BME280;25019;42.626;23.380;2023-09-19T08:08:40;94662.41;;;19.43;74.79
39301;BME280;25019;42.626;23.380;2023-09-19T08:11:06;94710.94;;;19.99;74.03
39301;BME280;25019;42.626;23.380;2023-09-19T08:13:41;94699.66;;;20.11;74.68
39301;BME280;25019;42.626;23.380;2023-09-19T08:16:10;94751.44;;;20.35;73.22
39301;BME280;25019;42.626;23.380;2023-09-19T08:18:36;94586.31;;;19.37;73.61
39301;BME280;25019;42.626;23.380;2023-09-19T08:21:05;94653.22;;;19.86;73.40
39301;BME280;25019;42.626;23.380;2023-09-19T08:23:36;94640.25;;;20.02;73.74
39301;BME280;25019;42.626;23.380;2023-09-19T08:26:01;94658.09;;;20.26;72.48
39301;BME280;25019;42.626;23.380;2023-09-19T08:28:36;94689.13;;;20.74;72.09
39301;BME280;25019;42.626;23.380;2023-09-19T08:31:05;94707.44;;;21.00;71.40
39301;BME280;25019;42.626;23.380;2023-09-19T08:33:35;94699.47;;;20.94;71.31
39301;BME280;25019;42.626;23.380;2023-09-19T08:36:02;94700.63;;;21.02;71.89
39301;BME280;25019;42.626;23.380;2023-09-19T08:38:31;94721.38;;;21.16;71.98
39301;BME280;25019;42.626;23.380;2023-09-19T08:40:59;94656.75;;;20.74;69.94
39301;BME280;25019;42.626;23.380;2023-09-19T08:43:26;94650.25;;;20.75;70.92
39301;BME280;25019;42.626;23.380;2023-09-19T08:46:14;94720.97;;;21.31;69.33
39301;BME280;25019;42.626;23.380;2023-09-19T08:48:57;94697.06;;;21.47;68.92
39301;BME280;25019;42.626;23.380;2023-09-19T08:51:45;94730.03;;;21.90;68.37
39301;BME280;25019;42.626;23.380;2023-09-19T08:54:25;94692.38;;;21.62;67.26
39301;BME280;25019;42.626;23.380;2023-09-19T08:56:53;94662.94;;;21.60;67.38
39301;BME280;25019;42.626;23.380;2023-09-19T08:59:23;94643.47;;;21.32;67.57
39301;BME280;25019;42.626;23.380;2023-09-19T09:01:50;94689.75;;;21.70;67.44
39301;BME280;25019;42.626;23.380;2023-09-19T09:04:19;94708.94;;;22.00;67.42
39301;BME280;25019;42.626;23.380;2023-09-19T09:06:46;94709.25;;;22.17;66.76
39301;BME280;25019;42.626;23.380;2023-09-19T09:09:17;94696.88;;;22.15;66.51
39301;BME280;25019;42.626;23.380;2023-09-19T09:11:43;94707.88;;;22.37;66.04
39301;BME280;25019;42.626;23.380;2023-09-19T09:14:08;94618.38;;;21.72;66.04
39301;BME280;25019;42.626;23.380;2023-09-19T09:16:34;94637.47;;;21.84;66.51
39301;BME280;25019;42.626;23.380;2023-09-19T09:19:00;94668.81;;;22.03;66.28
39301;BME280;25019;42.626;23.380;2023-09-19T09:21:27;94697.38;;;22.35;65.73
39301;BME280;25019;42.626;23.380;2023-09-19T09:23:54;94643.56;;;22.07;65.76
39301;BME280;25019;42.626;23.380;2023-09-19T09:29:04;94662.91;;;21.83;66.51
39301;BME280;25019;42.626;23.380;2023-09-19T09:31:30;94680.44;;;21.94;66.75
39301;BME280;25019;42.626;23.380;2023-09-19T09:33:56;94677.00;;;22.20;66.60
39301;BME280;25019;42.626;23.380;2023-09-19T09:36:39;94679.88;;;22.33;65.82
39301;BME280;25019;42.626;23.380;2023-09-19T09:39:07;94690.13;;;22.53;65.68
39301;BME280;25019;42.626;23.380;2023-09-19T09:41:50;94668.25;;;22.32;65.30
39301;BME280;25019;42.626;23.380;2023-09-19T09:44:17;94672.72;;;22.37;65.89
39301;BME280;25019;42.626;23.380;2023-09-19T09:46:44;94679.78;;;22.73;64.70
39301;BME280;25019;42.626;23.380;2023-09-19T09:49:26;94556.69;;;22.18;64.12
39301;BME280;25019;42.626;23.380;2023-09-19T09:52:03;94650.31;;;22.89;63.31
39301;BME280;25019;42.626;23.380;2023-09-19T09:54:34;94564.34;;;22.59;63.23
39301;BME280;25019;42.626;23.380;2023-09-19T09:57:08;94655.13;;;23.48;61.85
39301;BME280;25019;42.626;23.380;2023-09-19T09:59:59;94516.03;;;22.88;61.00
39301;BME280;25019;42.626;23.380;2023-09-19T10:02:41;94654.19;;;23.83;60.38
39301;BME280;25019;42.626;23.380;2023-09-19T10:05:20;94620.59;;;23.97;60.18
39301;BME280;25019;42.626;23.380;2023-09-19T10:07:52;94591.56;;;24.06;59.97
39301;BME280;25019;42.626;23.380;2023-09-19T10:10:33;94512.44;;;23.74;58.97
39301;BME280;25019;42.626;23.380;2023-09-19T10:13:10;94651.31;;;24.39;58.67
39301;BME280;25019;42.626;23.380;2023-09-19T10:15:46;94440.94;;;23.06;59.32
39301;BME280;25019;42.626;23.380;2023-09-19T10:18:24;94645.50;;;24.29;57.63
39301;BME280;25019;42.626;23.380;2023-09-19T10:20:51;94651.19;;;24.36;57.60
39301;BME280;25019;42.626;23.380;2023-09-19T10:23:19;94645.75;;;24.57;57.60
39301;BME280;25019;42.626;23.380;2023-09-19T10:25:49;94649.13;;;24.33;57.75
39301;BME280;25019;42.626;23.380;2023-09-19T10:28:17;94629.06;;;24.04;58.02
39301;BME280;25019;42.626;23.380;2023-09-19T10:30:53;94572.41;;;23.72;58.09
39301;BME280;25019;42.626;23.380;2023-09-19T10:33:24;94636.41;;;23.94;59.04
39301;BME280;25019;42.626;23.380;2023-09-19T10:35:56;94598.88;;;23.75;59.14
39301;BME280;25019;42.626;23.380;2023-09-19T10:38:26;94531.19;;;23.28;59.42
39301;BME280;25019;42.626;23.380;2023-09-19T10:40:56;94618.06;;;23.91;58.30
39301;BME280;25019;42.626;23.380;2023-09-19T10:43:29;94627.16;;;24.26;58.06
39301;BME280;25019;42.626;23.380;2023-09-19T10:46:01;94583.53;;;24.09;57.94
39301;BME280;25019;42.626;23.380;2023-09-19T10:48:27;94567.78;;;24.03;57.42
39301;BME280;25019;42.626;23.380;2023-09-19T10:51:22;94629.16;;;24.59;57.63
39301;BME280;25019;42.626;23.380;2023-09-19T10:54:18;94622.50;;;24.68;56.64
39301;BME280;25019;42.626;23.380;2023-09-19T10:56:50;94608.59;;;24.70;56.59
39301;BME280;25019;42.626;23.380;2023-09-19T10:59:19;94599.72;;;24.82;56.33
39301;BME280;25019;42.626;23.380;2023-09-19T11:01:50;94616.78;;;25.04;56.49
39301;BME280;25019;42.626;23.380;2023-09-19T11:07:10;94614.09;;;25.16;55.36
39301;BME280;25019;42.626;23.380;2023-09-19T11:09:53;94603.53;;;25.02;55.60
39301;BME280;25019;42.626;23.380;2023-09-19T11:14:55;94567.28;;;24.98;54.28
39301;BME280;25019;42.626;23.380;2023-09-19T11:30:44;94573.72;;;25.52;53.92
39301;BME280;25019;42.626;23.380;2023-09-19T11:33:26;94585.50;;;25.56;53.53
39301;BME280;25019;42.626;23.380;2023-09-19T11:36:08;94581.44;;;25.50;53.77
39301;BME280;25019;42.626;23.380;2023-09-19T11:41:41;94513.44;;;25.12;54.25
39301;BME280;25019;42.626;23.380;2023-09-19T11:49:18;94410.72;;;24.68;53.69
39301;BME280;25019;42.626;23.380;2023-09-19T11:51:46;94551.19;;;25.64;54.65
39301;BME280;25019;42.626;23.380;2023-09-19T11:54:16;94523.56;;;25.62;54.65
39301;BME280;25019;42.626;23.380;2023-09-19T11:56:44;94474.84;;;25.32;54.05
39301;BME280;25019;42.626;23.380;2023-09-19T11:59:11;94459.22;;;25.28;54.30
39301;BME280;25019;42.626;23.380;2023-09-19T12:01:38;94546.53;;;25.64;54.79
39301;BME280;25019;42.626;23.380;2023-09-19T12:04:11;94547.22;;;25.61;53.93
39301;BME280;25019;42.626;23.380;2023-09-19T12:06:37;94516.19;;;25.50;53.42
39301;BME280;25019;42.626;23.380;2023-09-19T12:09:12;94544.72;;;25.56;53.80
39301;BME280;25019;42.626;23.380;2023-09-19T12:11:43;94536.75;;;25.26;53.77
39301;BME280;25019;42.626;23.380;2023-09-19T12:14:11;94518.16;;;24.91;54.62
39301;BME280;25019;42.626;23.380;2023-09-19T12:16:57;94538.78;;;25.04;54.74
39301;BME280;25019;42.626;23.380;2023-09-19T12:19:23;94535.25;;;24.58;55.81
39301;BME280;25019;42.626;23.380;2023-09-19T12:21:56;94533.78;;;24.60;56.05
39301;BME280;25019;42.626;23.380;2023-09-19T12:24:30;94500.00;;;24.36;56.45
39301;BME280;25019;42.626;23.380;2023-09-19T12:27:06;94509.56;;;24.21;57.21
39301;BME280;25019;42.626;23.380;2023-09-19T12:29:48;94501.50;;;24.13;58.05
39301;BME280;25019;42.626;23.380;2023-09-19T12:32:14;94501.03;;;24.11;57.69
39301;BME280;25019;42.626;23.380;2023-09-19T12:34:42;94462.91;;;23.86;57.33
39301;BME280;25019;42.626;23.380;2023-09-19T12:37:15;94508.44;;;24.01;57.69
39301;BME280;25019;42.626;23.380;2023-09-19T12:39:47;94451.34;;;23.76;58.48
39301;BME280;25019;42.626;23.380;2023-09-19T12:42:19;94415.38;;;23.46;58.33
39301;BME280;25019;42.626;23.380;2023-09-19T12:44:48;94496.16;;;24.04;58.22
39301;BME280;25019;42.626;23.380;2023-09-19T12:47:16;94482.44;;;24.00;58.35
39301;BME280;25019;42.626;23.380;2023-09-19T12:50:10;94496.19;;;24.16;59.27
39301;BME280;25019;42.626;23.380;2023-09-19T12:52:55;94501.63;;;24.16;58.80
39301;BME280;25019;42.626;23.380;2023-09-19T12:55:31;94427.47;;;23.70;58.22
39301;BME280;25019;42.626;23.380;2023-09-19T13:00:37;94504.00;;;24.18;58.65
39301;BME280;25019;42.626;23.380;2023-09-19T13:06:03;94461.34;;;23.85;59.00
39301;BME280;25019;42.626;23.380;2023-09-19T13:08:31;94483.75;;;24.15;57.83
39301;BME280;25019;42.626;23.380;2023-09-19T13:13:40;94495.69;;;24.35;58.13
39301;BME280;25019;42.626;23.380;2023-09-19T13:16:07;94481.59;;;24.42;57.35
39301;BME280;25019;42.626;23.380;2023-09-19T13:18:42;94454.34;;;24.38;57.85
39301;BME280;25019;42.626;23.380;2023-09-19T13:21:11;94452.06;;;24.41;57.44
39301;BME280;25019;42.626;23.380;2023-09-19T13:26:46;94450.97;;;24.54;57.63
39301;BME280;25019;42.626;23.380;2023-09-19T13:29:12;94432.41;;;24.44;57.43
39301;BME280;25019;42.626;23.380;2023-09-19T13:31:37;94445.31;;;24.59;57.28
39301;BME280;25019;42.626;23.380;2023-09-19T13:34:07;94435.47;;;24.54;57.05
39301;BME280;25019;42.626;23.380;2023-09-19T13:36:32;94456.69;;;24.74;56.97
39301;BME280;25019;42.626;23.380;2023-09-19T13:38:59;94437.06;;;24.68;57.48
39301;BME280;25019;42.626;23.380;2023-09-19T13:41:25;94384.22;;;24.41;56.78
39301;BME280;25019;42.626;23.380;2023-09-19T13:43:51;94365.69;;;24.43;56.45
39301;BME280;25019;42.626;23.380;2023-09-19T13:46:17;94450.94;;;24.88;56.96